Time;durP1;ratioP1;P1;durP2;ratioP2;P2;SDS_P1;SDS_P2;PMS_P1;PMS_P2;Temp;Humidity;BMP_temperature;BMP_pressure;BME280_temperature;BME280_humidity;BME280_pressure;Samples;Min_cycle;Max_cycle;Signal;HPM_P1;HPM_P2
2022/12/22 03:33:38;;;;;;;10.82;7.80;;;9.30;99.90;;;;;;20663691;28;20073;-40
2022/12/22 03:53:59;;;;;;;14.23;9.38;;;9.40;99.90;;;;;;20665100;28;20639;-40
2022/12/22 04:04:00;;;;;;;25.48;11.20;;;9.30;99.90;;;;;;20670116;28;20505;-40
2022/12/22 04:14:02;;;;;;;23.02;13.35;;;9.30;99.90;;;;;;20674412;28;20713;-41
2022/12/22 04:24:04;;;;;;;29.13;12.90;;;9.30;99.90;;;;;;20663497;28;20119;-39
2022/12/22 04:34:05;;;;;;;24.50;12.35;;;9.30;99.90;;;;;;20661645;28;20339;-40
2022/12/22 04:44:06;;;;;;;20.85;13.20;;;9.30;99.90;;;;;;20662933;28;20041;-39
2022/12/22 04:54:07;;;;;;;23.75;13.18;;;9.30;99.90;;;;;;20661985;28;20038;-39
2022/12/22 05:04:08;;;;;;;22.00;11.85;;;9.20;99.90;;;;;;20666889;28;20050;-39
2022/12/22 05:14:09;;;;;;;25.27;12.40;;;9.30;99.90;;;;;;20659071;28;20041;-39
2022/12/22 05:24:10;;;;;;;20.05;11.15;;;9.20;99.90;;;;;;20659466;28;20085;-39
2022/12/22 05:34:11;;;;;;;21.73;12.45;;;9.20;99.90;;;;;;20649846;28;20078;-39
2022/12/22 05:44:12;;;;;;;40.70;19.80;;;9.20;99.90;;;;;;20662886;28;20061;-39
2022/12/22 05:54:13;;;;;;;23.48;13.07;;;9.30;99.90;;;;;;20656936;28;20099;-40
2022/12/22 06:04:14;;;;;;;27.25;13.20;;;9.20;99.90;;;;;;20647833;28;20077;-39
2022/12/22 06:14:15;;;;;;;32.97;14.50;;;9.10;99.90;;;;;;20655843;28;20045;-39
2022/12/22 06:24:16;;;;;;;20.00;10.00;;;9.00;99.90;;;;;;20656372;28;20047;-39
2022/12/22 06:34:18;;;;;;;19.67;8.93;;;9.00;99.90;;;;;;20672106;28;20532;-39
2022/12/22 06:44:19;;;;;;;15.80;8.48;;;8.90;99.90;;;;;;20675426;28;20128;-39
2022/12/22 06:54:20;;;;;;;17.77;8.40;;;8.70;99.90;;;;;;20676716;28;20030;-39
2022/12/22 07:04:21;;;;;;;14.65;5.03;;;8.60;99.90;;;;;;20677314;28;20123;-39
2022/12/22 07:14:22;;;;;;;11.13;5.63;;;8.60;99.90;;;;;;20665965;28;20141;-39
2022/12/22 07:24:24;;;;;;;11.75;4.32;;;8.40;99.90;;;;;;20682332;28;20050;-39
2022/12/22 07:34:25;;;;;;;7.70;3.95;;;8.30;99.90;;;;;;20659673;28;20564;-39
2022/12/22 07:44:26;;;;;;;18.55;5.90;;;8.30;99.90;;;;;;20656049;28;20510;-39
2022/12/22 07:54:28;;;;;;;9.18;4.18;;;8.20;99.90;;;;;;20661702;28;20069;-39
2022/12/22 08:04:29;;;;;;;8.60;4.55;;;8.10;99.90;;;;;;20649237;28;20723;-40
2022/12/22 08:14:30;;;;;;;6.90;4.22;;;8.10;99.90;;;;;;20654355;28;20081;-40
2022/12/22 08:24:31;;;;;;;8.88;4.85;;;8.00;99.90;;;;;;20664489;28;20509;-39
2022/12/22 08:34:32;;;;;;;6.38;3.40;;;7.90;99.90;;;;;;20645553;28;20681;-39
2022/12/22 08:44:35;;;;;;;8.60;3.92;;;7.80;99.90;;;;;;20659651;28;20127;-39
2022/12/22 08:54:36;;;;;;;7.75;2.50;;;7.60;99.90;;;;;;20672606;28;20058;-39
2022/12/22 09:04:37;;;;;;;6.05;3.25;;;7.40;99.90;;;;;;20665791;28;20141;-40
2022/12/22 09:14:38;;;;;;;5.97;2.97;;;7.30;99.90;;;;;;20663447;28;20496;-39
2022/12/22 09:24:39;;;;;;;5.63;3.72;;;7.30;99.90;;;;;;20649974;28;20493;-40
2022/12/22 09:34:40;;;;;;;6.40;3.78;;;7.40;99.90;;;;;;20645923;28;20164;-40
2022/12/22 09:44:49;;;;;;;12.00;4.82;;;7.60;99.90;;;;;;20644347;28;20089;-39
2022/12/22 09:54:50;;;;;;;8.50;4.47;;;7.80;99.90;;;;;;20653485;28;20160;-39
2022/12/22 10:05:14;;;;;;;8.82;3.00;;;8.00;99.90;;;;;;20683816;28;20412;-39
2022/12/22 10:15:15;;;;;;;6.95;3.65;;;8.20;99.90;;;;;;20687015;28;20341;-39
2022/12/22 10:25:42;;;;;;;8.80;3.42;;;8.50;99.90;;;;;;20671166;28;20081;-39
2022/12/22 10:35:53;;;;;;;4.88;2.75;;;9.10;99.90;;;;;;20669715;28;20042;-40
2022/12/22 10:45:57;;;;;;;6.68;3.13;;;9.30;99.90;;;;;;20675038;28;20548;-40
2022/12/22 10:56:06;;;;;;;3.15;1.90;;;9.90;99.90;;;;;;20687750;28;20053;-39
2022/12/22 11:06:12;;;;;;;3.45;1.50;;;10.50;99.90;;;;;;20672834;28;22301;-40
2022/12/22 11:16:32;;;;;;;3.60;1.33;;;11.00;99.90;;;;;;20673370;28;20065;-39
2022/12/22 11:27:17;;;;;;;4.13;1.88;;;11.20;99.90;;;;;;20697948;28;20144;-40
2022/12/22 11:37:47;;;;;;;7.68;1.73;;;11.60;99.90;;;;;;20690005;28;20884;-40
2022/12/22 11:48:10;;;;;;;4.47;2.20;;;11.80;99.90;;;;;;20680127;28;20399;-39
2022/12/22 11:58:27;;;;;;;5.18;2.03;;;12.10;99.90;;;;;;20670805;28;20930;-39
2022/12/22 12:08:40;;;;;;;2.20;1.50;;;11.80;99.90;;;;;;20613076;28;20049;-41
2022/12/22 12:19:20;;;;;;;1.73;1.02;;;11.40;99.90;;;;;;20634883;28;20125;-40
2022/12/22 12:29:27;;;;;;;4.13;2.80;;;10.90;99.90;;;;;;20651462;28;20832;-40
2022/12/22 12:40:16;;;;;;;19.10;4.57;;;9.80;99.90;;;;;;20666107;28;20492;-40
2022/12/22 12:50:34;;;;;;;6.20;2.67;;;8.90;99.90;;;;;;20568284;28;21859;-40
2022/12/22 13:00:34;;;;;;;11.33;5.43;;;8.20;99.90;;;;;;20638894;28;20141;-40
2022/12/22 13:10:43;;;;;;;10.38;5.70;;;7.90;99.90;;;;;;20628927;28;20046;-40
2022/12/22 13:21:06;;;;;;;12.05;5.22;;;7.80;99.90;;;;;;20618657;28;20122;-41
2022/12/22 13:31:19;;;;;;;13.15;6.85;;;7.90;99.90;;;;;;20616667;28;20183;-40
2022/12/22 13:41:22;;;;;;;17.30;9.55;;;8.00;99.90;;;;;;20663198;28;20263;-40
2022/12/22 13:51:31;;;;;;;11.98;6.95;;;8.20;99.90;;;;;;20655093;28;20132;-40
2022/12/22 14:01:33;;;;;;;8.60;5.50;;;8.20;99.90;;;;;;20678833;28;20339;-40
2022/12/22 14:11:34;;;;;;;13.82;6.55;;;8.40;99.90;;;;;;20660977;28;20482;-41
2022/12/22 14:21:35;;;;;;;16.85;8.13;;;8.30;99.90;;;;;;20643175;28;20081;-40
2022/12/22 14:32:00;;;;;;;14.52;8.00;;;8.40;99.90;;;;;;20665241;28;20545;-41
2022/12/22 14:42:03;;;;;;;12.68;7.22;;;8.30;99.90;;;;;;20672550;28;20650;-40
2022/12/22 14:52:28;;;;;;;16.23;10.02;;;8.30;99.90;;;;;;20642353;28;20129;-40
2022/12/22 15:02:47;;;;;;;16.38;8.35;;;8.30;99.90;;;;;;20641205;28;22290;-40
2022/12/22 15:12:53;;;;;;;19.30;10.57;;;8.30;99.90;;;;;;20633527;28;20042;-40
2022/12/22 15:22:54;;;;;;;17.20;10.23;;;8.30;99.90;;;;;;20621868;28;20056;-41
2022/12/22 15:32:56;;;;;;;19.48;9.15;;;8.40;99.90;;;;;;20636064;28;20084;-40
2022/12/22 15:42:57;;;;;;;18.50;11.25;;;8.40;99.90;;;;;;20650047;28;20121;-40
2022/12/22 15:52:59;;;;;;;23.02;11.75;;;8.50;99.90;;;;;;20631146;28;20069;-40
2022/12/22 16:03:00;;;;;;;17.20;10.77;;;8.40;99.90;;;;;;20629718;28;20180;-40
2022/12/22 16:13:02;;;;;;;21.38;10.88;;;8.40;99.90;;;;;;20636844;28;20065;-40
2022/12/22 16:23:05;;;;;;;32.95;13.35;;;8.40;99.90;;;;;;20640081;28;20164;-40
2022/12/22 16:33:10;;;;;;;17.00;9.30;;;8.30;99.90;;;;;;20648488;28;20533;-39
2022/12/22 16:43:27;;;;;;;16.98;10.85;;;8.40;99.90;;;;;;20637213;28;20116;-40
2022/12/22 16:53:29;;;;;;;15.02;9.43;;;8.40;99.90;;;;;;20661554;28;20058;-42
2022/12/22 17:03:30;;;;;;;12.70;8.10;;;8.40;99.90;;;;;;20684004;28;20092;-42
2022/12/22 17:13:31;;;;;;;17.77;8.82;;;8.40;99.90;;;;;;20669148;28;20037;-42
2022/12/22 17:23:36;;;;;;;20.42;12.13;;;8.40;99.90;;;;;;20618242;28;20053;-42
2022/12/22 17:33:40;;;;;;;17.73;8.73;;;8.40;99.90;;;;;;20640448;28;20165;-42
2022/12/22 17:43:41;;;;;;;10.07;6.25;;;8.50;99.90;;;;;;20642308;28;20180;-41
2022/12/22 17:53:44;;;;;;;17.08;9.27;;;8.50;99.90;;;;;;20633935;28;20521;-42
2022/12/22 18:03:45;;;;;;;11.52;5.80;;;8.50;99.90;;;;;;20629908;28;20132;-43
2022/12/22 18:13:46;;;;;;;9.25;4.53;;;8.60;99.90;;;;;;20649739;28;20065;-43
2022/12/22 18:23:53;;;;;;;12.70;6.47;;;8.60;99.90;;;;;;20659604;28;20136;-42
2022/12/22 18:33:54;;;;;;;11.60;6.75;;;8.70;99.90;;;;;;20670113;28;20061;-42
2022/12/22 18:43:55;;;;;;;14.95;7.60;;;8.80;99.90;;;;;;20661537;28;20073;-42
2022/12/22 18:53:56;;;;;;;11.50;6.72;;;9.00;99.90;;;;;;20644918;28;20129;-42
2022/12/22 19:03:57;;;;;;;13.88;8.30;;;9.10;99.90;;;;;;20643877;28;20156;-42
2022/12/22 19:13:59;;;;;;;26.83;14.55;;;9.20;99.90;;;;;;20642660;28;20557;-42
2022/12/22 19:24:00;;;;;;;16.63;8.57;;;9.30;99.90;;;;;;20645287;28;20136;-43
2022/12/22 19:34:05;;;;;;;12.63;8.55;;;9.50;99.90;;;;;;20643383;28;20133;-42
2022/12/22 19:44:27;;;;;;;9.85;7.35;;;9.50;99.90;;;;;;20644081;28;20639;-42
2022/12/22 19:54:28;;;;;;;17.15;7.82;;;9.60;99.90;;;;;;20633219;28;20038;-42
2022/12/22 20:04:29;;;;;;;34.35;9.85;;;9.70;99.90;;;;;;20632532;28;21632;-42
2022/12/22 20:14:30;;;;;;;13.90;8.38;;;9.80;99.90;;;;;;20658895;28;20030;-43
2022/12/22 20:24:33;;;;;;;11.95;7.45;;;9.90;99.90;;;;;;20666254;28;20058;-42
2022/12/22 20:34:34;;;;;;;12.48;7.82;;;9.90;99.90;;;;;;20663824;28;20085;-43
2022/12/22 20:44:35;;;;;;;10.10;7.15;;;9.90;99.90;;;;;;20659837;28;20663;-43
2022/12/22 20:54:36;;;;;;;14.85;9.02;;;9.90;99.90;;;;;;20643601;28;20450;-42
2022/12/22 21:04:38;;;;;;;10.38;6.53;;;10.00;99.90;;;;;;20641032;28;20698;-42
2022/12/22 21:14:39;;;;;;;8.05;5.90;;;9.90;99.90;;;;;;20643589;28;20140;-42
2022/12/22 21:24:40;;;;;;;10.65;5.35;;;10.00;99.90;;;;;;20642303;28;20085;-42
2022/12/22 21:34:41;;;;;;;4.95;2.72;;;10.10;99.90;;;;;;20647631;28;20069;-43
2022/12/22 21:44:46;;;;;;;5.32;2.25;;;10.10;99.90;;;;;;20632601;28;20042;-42
2022/12/22 21:54:47;;;;;;;4.30;1.80;;;10.00;99.90;;;;;;20634925;28;20124;-42
2022/12/22 22:04:48;;;;;;;4.35;2.42;;;9.90;99.90;;;;;;20649185;28;20133;-42
2022/12/22 22:14:49;;;;;;;4.45;2.22;;;9.90;99.90;;;;;;20649592;28;20164;-41
2022/12/22 22:24:50;;;;;;;3.67;2.22;;;9.90;99.90;;;;;;20674312;28;20046;-42
2022/12/22 22:34:51;;;;;;;7.25;3.58;;;9.90;99.90;;;;;;20676573;28;20097;-43
2022/12/22 22:44:52;;;;;;;9.48;4.85;;;10.00;99.90;;;;;;20670196;28;20164;-42
2022/12/22 22:54:53;;;;;;;7.07;4.30;;;9.90;99.90;;;;;;20649699;28;20572;-44
2022/12/22 23:04:54;;;;;;;9.77;4.72;;;10.00;99.90;;;;;;20642102;28;20041;-42
2022/12/22 23:14:55;;;;;;;6.05;3.72;;;10.00;99.90;;;;;;20649115;28;20033;-42
2022/12/22 23:24:56;;;;;;;9.00;5.10;;;9.90;99.90;;;;;;20653991;28;20855;-42
2022/12/22 23:34:57;;;;;;;8.77;6.03;;;9.90;99.90;;;;;;20642496;28;20077;-42
2022/12/22 23:44:58;;;;;;;10.00;5.85;;;10.00;99.90;;;;;;20641896;28;20065;-42
2022/12/22 23:54:59;;;;;;;9.02;5.22;;;10.00;99.90;;;;;;20654762;28;20077;-43
